Time;durP1;ratioP1;P1;durP2;ratioP2;P2;SDS_P1;SDS_P2;PMS_P1;PMS_P2;Temp;Humidity;BMP_temperature;BMP_pressure;BME280_temperature;BME280_humidity;BME280_pressure;Samples;Min_cycle;Max_cycle;Signal;HPM_P1;HPM_P2
2023/08/19 00:02:17;;;;;;;;;31.00;29.00;;;;;25.79;61.78;101167.30;109972;1266;20021;-80
2023/08/19 00:04:43;;;;;;;;;35.00;30.00;;;;;25.78;61.82;101168.41;109970;1250;20150;-80
2023/08/19 00:07:09;;;;;;;;;30.00;27.00;;;;;25.78;61.75;101167.58;109990;1250;21016;-80
2023/08/19 00:09:37;;;;;;;;;37.00;33.00;;;;;25.80;61.66;101165.09;109996;1265;20457;-81
2023/08/19 00:12:03;;;;;;;;;36.00;32.00;;;;;25.79;61.69;101164.23;109976;1250;22846;-81
2023/08/19 00:14:29;;;;;;;;;36.00;32.00;;;;;25.78;61.66;101162.48;109962;1259;21038;-80
2023/08/19 00:16:55;;;;;;;;;36.00;33.00;;;;;25.79;61.63;101163.08;109999;1266;22056;-80
2023/08/19 00:19:21;;;;;;;;;34.00;32.00;;;;;25.78;61.61;101170.33;109962;1251;19972;-80
2023/08/19 00:21:47;;;;;;;;;37.50;32.50;;;;;25.76;61.62;101171.29;109969;1265;20811;-81
2023/08/19 00:24:13;;;;;;;;;34.00;32.00;;;;;25.74;61.72;101171.54;109956;1266;23129;-81
2023/08/19 00:26:39;;;;;;;;;34.00;31.00;;;;;25.75;61.56;101173.07;109962;1250;22868;-78
2023/08/19 00:29:05;;;;;;;;;33.50;30.00;;;;;25.71;61.62;101168.55;109967;1265;23596;-80
2023/08/19 00:31:31;;;;;;;;;36.50;32.00;;;;;25.72;61.64;101173.59;109991;1251;21666;-79
2023/08/19 00:33:58;;;;;;;;;36.00;32.00;;;;;25.74;61.81;101172.64;109953;1251;19768;-79
2023/08/19 00:36:25;;;;;;;;;37.00;34.00;;;;;25.74;61.78;101173.46;110006;1251;21424;-79
2023/08/19 00:38:51;;;;;;;;;33.00;31.00;;;;;25.74;61.81;101171.38;110011;1266;20254;-79
2023/08/19 00:41:18;;;;;;;;;35.00;31.00;;;;;25.73;61.95;101178.52;110013;1260;19989;-79
2023/08/19 00:43:44;;;;;;;;;32.00;29.50;;;;;25.71;61.88;101178.70;110053;1265;20835;-79
2023/08/19 00:46:10;;;;;;;;;32.00;29.00;;;;;25.71;61.93;101180.36;110011;1259;20430;-80
2023/08/19 00:48:36;;;;;;;;;29.00;27.00;;;;;25.71;61.93;101178.23;109984;1251;19772;-80
2023/08/19 00:51:05;;;;;;;;;31.00;30.50;;;;;25.70;61.95;101176.20;109972;1251;20998;-79
2023/08/19 00:53:31;;;;;;;;;33.50;31.00;;;;;25.68;62.03;101177.27;109980;1265;21992;-79
2023/08/19 00:55:57;;;;;;;;;28.50;27.00;;;;;25.68;62.11;101166.77;109981;1265;19260;-80
2023/08/19 00:58:23;;;;;;;;;31.00;29.00;;;;;25.69;62.09;101168.09;109977;1265;19445;-79
2023/08/19 01:00:49;;;;;;;;;30.50;30.00;;;;;25.68;62.11;101169.69;109965;1266;20180;-79
2023/08/19 01:03:15;;;;;;;;;31.00;30.00;;;;;25.67;62.11;101171.46;109981;1250;19972;-79
2023/08/19 01:05:41;;;;;;;;;39.00;33.00;;;;;25.68;62.10;101168.10;109955;1251;21629;-79
2023/08/19 01:08:07;;;;;;;;;36.00;34.00;;;;;25.68;61.97;101164.92;109943;1250;21350;-80
2023/08/19 01:10:33;;;;;;;;;33.00;29.00;;;;;25.67;61.86;101166.20;109943;1259;18990;-81
2023/08/19 01:12:59;;;;;;;;;34.00;30.00;;;;;25.63;61.90;101163.80;109976;1250;20852;-81
2023/08/19 01:15:25;;;;;;;;;32.00;30.00;;;;;25.63;61.87;101156.55;109991;1251;21183;-81
2023/08/19 01:17:52;;;;;;;;;32.00;26.00;;;;;25.64;61.80;101156.77;110010;1251;20849;-79
2023/08/19 01:20:18;;;;;;;;;28.00;27.00;;;;;25.62;61.64;101156.95;110036;1250;23235;-80
2023/08/19 01:22:45;;;;;;;;;27.00;23.00;;;;;25.60;61.18;101157.41;109972;1251;21749;-80
2023/08/19 01:25:11;;;;;;;;;31.00;28.00;;;;;25.57;61.12;101154.23;110005;1250;19923;-80
2023/08/19 01:27:38;;;;;;;;;33.00;29.00;;;;;25.55;60.90;101153.14;110017;1250;20798;-80
2023/08/19 01:30:04;;;;;;;;;34.00;29.00;;;;;25.55;60.87;101151.54;109994;1251;21349;-80
2023/08/19 01:32:31;;;;;;;;;28.00;27.00;;;;;25.57;60.69;101150.27;110024;1251;21187;-80
2023/08/19 01:34:57;;;;;;;;;28.00;27.00;;;;;25.57;60.60;101151.20;110045;1265;20783;-80
2023/08/19 01:37:23;;;;;;;;;30.00;27.00;;;;;25.57;60.53;101148.45;110021;1251;21575;-79
2023/08/19 01:39:49;;;;;;;;;34.50;29.00;;;;;25.56;60.76;101140.56;109971;1250;20040;-80
2023/08/19 01:42:15;;;;;;;;;25.00;23.00;;;;;25.56;60.58;101139.14;109953;1265;19386;-80
2023/08/19 01:44:41;;;;;;;;;30.00;26.00;;;;;25.55;60.61;101136.19;109958;1266;20288;-79
2023/08/19 01:47:07;;;;;;;;;27.00;26.00;;;;;25.55;60.55;101136.14;109987;1265;19568;-79
2023/08/19 01:49:33;;;;;;;;;30.00;25.00;;;;;25.52;60.58;101136.39;110010;1250;21032;-79
2023/08/19 01:51:59;;;;;;;;;27.00;26.00;;;;;25.50;60.40;101136.25;110007;1251;21525;-79
2023/08/19 01:54:25;;;;;;;;;25.00;25.00;;;;;25.49;60.35;101134.49;109954;1251;23148;-80
2023/08/19 01:56:51;;;;;;;;;30.00;27.50;;;;;25.49;60.20;101133.14;109910;1251;20687;-81
2023/08/19 01:59:17;;;;;;;;;27.00;26.00;;;;;25.49;59.98;101136.20;109962;1265;20153;-79
2023/08/19 02:01:43;;;;;;;;;27.00;25.00;;;;;25.49;59.81;101136.14;110009;1266;20489;-80
2023/08/19 02:04:09;;;;;;;;;23.00;22.50;;;;;25.48;59.77;101135.11;109991;1251;22023;-80
2023/08/19 02:06:35;;;;;;;;;26.00;25.00;;;;;25.48;59.79;101133.63;109963;1266;19911;-79
2023/08/19 02:09:01;;;;;;;;;27.00;26.00;;;;;25.52;59.64;101133.42;109960;1251;20082;-79
2023/08/19 02:11:27;;;;;;;;;29.00;26.00;;;;;25.54;59.50;101132.31;109961;1250;19494;-80
2023/08/19 02:13:53;;;;;;;;;26.33;24.00;;;;;25.53;59.35;101126.17;110004;1251;21544;-80
2023/08/19 02:16:19;;;;;;;;;27.50;26.50;;;;;25.49;59.42;101128.52;109986;1251;19749;-80
2023/08/19 02:18:45;;;;;;;;;32.00;28.00;;;;;25.50;59.44;101126.54;109979;1265;20048;-82
2023/08/19 02:21:11;;;;;;;;;23.50;22.00;;;;;25.49;59.25;101131.48;110013;1266;20128;-79
2023/08/19 02:23:37;;;;;;;;;30.50;26.50;;;;;25.51;59.20;101134.42;109989;1250;23205;-80
2023/08/19 02:26:03;;;;;;;;;29.00;26.00;;;;;25.50;59.21;101136.35;110007;1265;19217;-79
2023/08/19 02:28:30;;;;;;;;;31.00;25.50;;;;;25.50;59.38;101133.84;110026;1251;23486;-80
2023/08/19 02:30:56;;;;;;;;;26.33;26.00;;;;;25.51;59.31;101140.23;110003;1250;23106;-80
2023/08/19 02:33:22;;;;;;;;;28.00;25.00;;;;;25.51;59.56;101141.40;109996;1259;23182;-82
2023/08/19 02:35:48;;;;;;;;;27.00;26.00;;;;;25.53;59.33;101146.14;110000;1251;20299;-81
2023/08/19 02:38:14;;;;;;;;;26.00;23.00;;;;;25.51;59.42;101143.37;109986;1251;19818;-80
2023/08/19 02:40:40;;;;;;;;;27.00;25.50;;;;;25.51;59.49;101141.23;110032;1250;20935;-80
2023/08/19 02:43:06;;;;;;;;;27.00;25.00;;;;;25.51;59.46;101141.06;109991;1250;20189;-80
2023/08/19 02:45:35;;;;;;;;;23.00;22.00;;;;;25.50;59.47;101136.25;109972;1250;19978;-79
2023/08/19 02:48:01;;;;;;;;;26.50;23.50;;;;;25.50;59.61;101136.80;109989;1266;23637;-80
2023/08/19 02:50:27;;;;;;;;;26.00;25.00;;;;;25.48;59.96;101136.59;110019;1266;23539;-80
2023/08/19 02:52:53;;;;;;;;;30.00;23.00;;;;;25.48;60.02;101135.33;109988;1250;20058;-81
2023/08/19 02:55:19;;;;;;;;;26.00;25.00;;;;;25.48;60.07;101139.45;110019;1266;23003;-83
2023/08/19 02:57:45;;;;;;;;;26.00;24.00;;;;;25.47;60.27;101144.30;110033;1265;21484;-81
2023/08/19 03:00:11;;;;;;;;;24.50;22.00;;;;;25.47;60.28;101145.67;109983;1266;22949;-82
2023/08/19 03:02:37;;;;;;;;;25.00;25.00;;;;;25.47;60.17;101142.27;109962;1266;20637;-80
2023/08/19 03:05:04;;;;;;;;;31.00;27.00;;;;;25.45;60.04;101138.45;110023;1251;21678;-81
2023/08/19 03:07:30;;;;;;;;;26.00;25.00;;;;;25.44;60.15;101141.91;110046;1250;20088;-81
2023/08/19 03:09:56;;;;;;;;;25.00;24.00;;;;;25.42;60.23;101146.83;110020;1265;23530;-80
2023/08/19 03:12:22;;;;;;;;;25.00;25.00;;;;;25.41;60.52;101146.45;110025;1259;22300;-81
2023/08/19 03:14:48;;;;;;;;;27.00;26.00;;;;;25.41;60.50;101148.16;110041;1251;20038;-80
2023/08/19 03:17:14;;;;;;;;;31.00;27.00;;;;;25.41;60.56;101147.65;110008;1250;20925;-80
2023/08/19 03:19:40;;;;;;;;;31.00;28.00;;;;;25.40;60.75;101146.08;110009;1250;21570;-81
2023/08/19 03:22:06;;;;;;;;;27.00;26.00;;;;;25.38;60.89;101147.54;109992;1251;23538;-80
2023/08/19 03:24:32;;;;;;;;;28.00;27.00;;;;;25.37;61.01;101146.34;109992;1250;21925;-79
2023/08/19 03:26:58;;;;;;;;;27.00;25.00;;;;;25.38;60.93;101146.33;110010;1265;20465;-79
2023/08/19 03:29:24;;;;;;;;;25.50;25.00;;;;;25.35;60.83;101146.56;110007;1250;23609;-79
2023/08/19 03:31:50;;;;;;;;;28.00;26.00;;;;;25.35;60.73;101146.79;110027;1266;20760;-80
2023/08/19 03:34:16;;;;;;;;;32.00;26.00;;;;;25.36;60.91;101145.35;109959;1266;22678;-82
2023/08/19 03:36:42;;;;;;;;;27.00;23.00;;;;;25.35;60.77;101141.75;109979;1251;22823;-82
2023/08/19 03:39:09;;;;;;;;;29.00;27.00;;;;;25.33;60.68;101145.93;109993;1266;22485;-80
2023/08/19 03:41:35;;;;;;;;;28.00;26.00;;;;;25.33;60.97;101144.84;109939;1251;21518;-79
2023/08/19 03:44:01;;;;;;;;;27.00;26.50;;;;;25.33;60.69;101151.75;109973;1251;20002;-80
2023/08/19 03:46:28;;;;;;;;;31.00;28.00;;;;;25.31;60.87;101153.58;109942;1251;22255;-81
2023/08/19 03:48:54;;;;;;;;;29.50;27.00;;;;;25.31;60.82;101148.09;109949;1251;23594;-81
2023/08/19 03:51:20;;;;;;;;;30.00;28.00;;;;;25.31;60.98;101153.19;109969;1265;19372;-81
2023/08/19 03:53:46;;;;;;;;;32.00;29.00;;;;;25.29;60.99;101153.77;109975;1259;23058;-81
2023/08/19 03:56:12;;;;;;;;;30.00;28.00;;;;;25.31;60.89;101151.88;109982;1266;22398;-81
2023/08/19 03:58:38;;;;;;;;;28.00;25.50;;;;;25.29;61.02;101148.50;110006;1260;23633;-80
2023/08/19 04:01:04;;;;;;;;;33.00;28.00;;;;;25.27;61.13;101146.27;109983;1251;21097;-80
2023/08/19 04:03:30;;;;;;;;;30.00;28.00;;;;;25.29;61.09;101140.98;109974;1260;21752;-81
2023/08/19 04:05:56;;;;;;;;;30.00;27.00;;;;;25.29;61.12;101141.04;109960;1265;23662;-81
2023/08/19 04:08:22;;;;;;;;;30.50;29.50;;;;;25.29;61.04;101138.75;110004;1250;22520;-82
2023/08/19 04:10:48;;;;;;;;;30.00;29.00;;;;;25.28;61.10;101135.96;109984;1260;21693;-81
2023/08/19 04:13:16;;;;;;;;;31.00;31.00;;;;;25.28;61.16;101134.09;110006;1266;19500;-81
2023/08/19 04:15:42;;;;;;;;;41.00;36.00;;;;;25.29;61.25;101140.34;110046;1266;19686;-81
2023/08/19 04:18:08;;;;;;;;;40.00;37.00;;;;;25.27;61.21;101145.02;110055;1251;21586;-80
2023/08/19 04:20:34;;;;;;;;;35.00;31.00;;;;;25.28;61.32;101144.29;110008;1253;20180;-81
2023/08/19 04:23:00;;;;;;;;;35.00;34.00;;;;;25.24;61.43;101144.45;109994;1265;19519;-81
2023/08/19 04:25:26;;;;;;;;;34.00;32.00;;;;;25.25;61.54;101142.84;109970;1265;20368;-81
2023/08/19 04:27:53;;;;;;;;;33.00;30.50;;;;;25.25;61.51;101142.35;109964;1266;20299;-80
2023/08/19 04:30:19;;;;;;;;;34.00;31.50;;;;;25.26;61.55;101147.81;109969;1251;22652;-81
2023/08/19 04:32:45;;;;;;;;;43.00;38.00;;;;;25.25;61.23;101148.60;109954;1250;23269;-81
2023/08/19 04:35:12;;;;;;;;;49.00;40.50;;;;;25.25;61.50;101147.45;109988;1266;22043;-81
2023/08/19 04:37:38;;;;;;;;;50.00;41.00;;;;;25.25;61.21;101149.15;109941;1266;19287;-81
2023/08/19 04:40:06;;;;;;;;;37.00;35.00;;;;;25.26;61.37;101150.84;110049;1266;20175;-81
2023/08/19 04:42:32;;;;;;;;;38.50;35.00;;;;;25.24;61.30;101157.50;110046;1265;20340;-81
2023/08/19 04:44:58;;;;;;;;;46.50;40.00;;;;;25.25;61.37;101153.65;109945;1266;19222;-80
2023/08/19 04:47:24;;;;;;;;;38.00;35.00;;;;;25.26;61.44;101159.11;109986;1251;21478;-81
2023/08/19 04:49:50;;;;;;;;;36.67;31.33;;;;;25.27;61.58;101161.14;110011;1251;22562;-81
2023/08/19 04:52:16;;;;;;;;;35.00;33.00;;;;;25.28;61.52;101157.95;109920;1250;20760;-81
2023/08/19 04:54:42;;;;;;;;;31.00;30.00;;;;;25.28;61.54;101161.34;109952;1250;21167;-79
2023/08/19 04:57:08;;;;;;;;;33.50;32.00;;;;;25.28;61.81;101162.28;110001;1250;19746;-79
2023/08/19 04:59:34;;;;;;;;;34.00;32.00;;;;;25.25;61.97;101162.31;110011;1251;20829;-79
2023/08/19 05:02:01;;;;;;;;;32.00;29.00;;;;;25.25;62.37;101161.71;109966;1265;21961;-80
2023/08/19 05:04:27;;;;;;;;;36.00;31.00;;;;;25.21;62.31;101162.63;109967;1266;19938;-80
2023/08/19 05:06:53;;;;;;;;;32.00;29.00;;;;;25.23;62.41;101160.47;110001;1251;22469;-80
2023/08/19 05:09:19;;;;;;;;;32.50;30.00;;;;;25.25;62.36;101165.60;109987;1250;21519;-80
2023/08/19 05:11:45;;;;;;;;;37.00;30.00;;;;;25.26;62.22;101168.99;109951;1251;19858;-81
2023/08/19 05:14:11;;;;;;;;;31.00;30.00;;;;;25.25;62.39;101171.91;109968;1251;20793;-80
2023/08/19 05:16:37;;;;;;;;;35.00;34.00;;;;;25.28;62.14;101172.81;110037;1250;22747;-81
2023/08/19 05:19:03;;;;;;;;;36.00;32.00;;;;;25.31;61.99;101171.67;110000;1250;22867;-80
2023/08/19 05:21:29;;;;;;;;;32.00;32.00;;;;;25.32;62.03;101166.73;110874;1250;21146;-80
2023/08/19 05:23:55;;;;;;;;;28.00;27.00;;;;;25.33;62.10;101168.52;111691;1265;20226;-80
2023/08/19 05:26:21;;;;;;;;;26.00;24.00;;;;;25.38;61.97;101169.91;111403;1250;20113;-77
2023/08/19 05:28:47;;;;;;;;;29.00;25.00;;;;;25.43;61.68;101170.02;110643;1250;21181;-78
2023/08/19 05:31:13;;;;;;;;;26.00;21.00;;;;;25.52;61.45;101173.20;109998;1250;23009;-79
2023/08/19 05:33:40;;;;;;;;;23.00;22.00;;;;;25.61;61.20;101170.89;110010;1250;20002;-78
2023/08/19 05:36:06;;;;;;;;;21.00;19.00;;;;;25.66;60.96;101173.59;110174;1251;23070;-78
2023/08/19 05:38:32;;;;;;;;;29.00;22.00;;;;;25.70;60.80;101170.71;110310;1250;21403;-80
2023/08/19 05:40:58;;;;;;;;;20.67;20.00;;;;;25.73;60.58;101165.40;110120;1266;19887;-78
2023/08/19 05:43:24;;;;;;;;;24.00;22.00;;;;;25.83;60.32;101170.00;110027;1259;19991;-79
2023/08/19 05:45:50;;;;;;;;;25.00;21.00;;;;;25.87;60.23;101173.63;109931;1250;21550;-80
2023/08/19 05:48:16;;;;;;;;;22.00;22.00;;;;;25.88;60.46;101174.60;109934;1251;22521;-78
2023/08/19 05:50:42;;;;;;;;;26.00;23.00;;;;;25.88;60.31;101175.36;109997;1265;20866;-81
2023/08/19 05:53:08;;;;;;;;;23.00;22.00;;;;;25.91;60.08;101179.33;109995;1250;22857;-77
2023/08/19 05:55:34;;;;;;;;;28.00;25.00;;;;;25.89;59.79;101176.08;110036;1260;20092;-79
2023/08/19 05:58:00;;;;;;;;;27.00;23.00;;;;;25.77;60.04;101173.96;110021;1265;19718;-77
2023/08/19 06:00:26;;;;;;;;;30.00;27.00;;;;;25.79;59.80;101176.86;110240;1265;23702;-77
2023/08/19 06:02:52;;;;;;;;;29.00;27.00;;;;;25.74;59.83;101183.66;110087;1265;22452;-77
2023/08/19 06:05:18;;;;;;;;;31.00;30.00;;;;;25.85;60.03;101183.30;110043;1260;20852;-77
2023/08/19 06:07:44;;;;;;;;;31.00;29.00;;;;;25.85;60.24;101187.38;110051;1250;22595;-77
2023/08/19 06:10:10;;;;;;;;;30.00;27.50;;;;;25.80;60.49;101189.14;110606;1265;19967;-80
2023/08/19 06:12:36;;;;;;;;;28.50;26.00;;;;;25.80;60.71;101189.35;111060;1250;23518;-81
2023/08/19 06:15:02;;;;;;;;;30.00;27.00;;;;;25.85;60.69;101193.36;111347;1265;20277;-80
2023/08/19 06:17:28;;;;;;;;;26.00;25.00;;;;;25.83;60.52;101192.99;111462;1265;21488;-79
2023/08/19 06:19:54;;;;;;;;;30.00;24.00;;;;;25.82;60.40;101189.48;110831;1251;22280;-77
2023/08/19 06:22:20;;;;;;;;;31.00;29.00;;;;;25.82;60.46;101192.35;111321;1250;22133;-80
2023/08/19 06:24:46;;;;;;;;;27.00;25.00;;;;;25.84;60.45;101195.23;111511;1250;19506;-78
2023/08/19 06:27:12;;;;;;;;;26.50;25.50;;;;;25.90;60.15;101198.35;111449;1250;21035;-86
2023/08/19 06:29:39;;;;;;;;;26.00;23.50;;;;;25.94;60.13;101201.80;111011;1250;21508;-80
2023/08/19 06:32:05;;;;;;;;;29.50;28.50;;;;;25.95;60.00;101204.75;111256;1251;20482;-79
2023/08/19 06:34:31;;;;;;;;;29.00;25.00;;;;;25.95;59.95;101207.33;111168;1265;21481;-79
2023/08/19 06:36:57;;;;;;;;;25.00;25.00;;;;;26.00;60.22;101214.94;111290;1265;20253;-79
2023/08/19 06:39:23;;;;;;;;;26.00;23.50;;;;;26.06;60.23;101213.70;111241;1265;22460;-82
2023/08/19 06:41:49;;;;;;;;;25.00;23.00;;;;;26.11;59.93;101216.27;111183;1265;19636;-80
2023/08/19 06:44:15;;;;;;;;;26.67;24.00;;;;;26.16;59.70;101212.52;111667;1265;20102;-81
2023/08/19 06:46:42;;;;;;;;;29.50;27.00;;;;;26.18;59.32;101213.69;111720;1265;19001;-81
2023/08/19 06:49:08;;;;;;;;;33.00;31.00;;;;;26.14;59.40;101214.85;111394;1265;19422;-81
2023/08/19 06:51:34;;;;;;;;;27.33;25.00;;;;;26.08;59.33;101212.90;111360;1259;20165;-80
2023/08/19 06:54:00;;;;;;;;;25.00;23.50;;;;;26.15;59.14;101217.35;111678;1250;20092;-79
2023/08/19 06:56:26;;;;;;;;;25.50;23.00;;;;;26.22;59.02;101221.77;111634;1250;20886;-82
2023/08/19 06:58:52;;;;;;;;;28.00;26.00;;;;;26.25;58.93;101223.21;110829;1250;21492;-78
2023/08/19 07:01:19;;;;;;;;;24.67;23.67;;;;;26.28;59.05;101217.90;110136;1260;19231;-81
2023/08/19 07:03:45;;;;;;;;;27.00;25.00;;;;;26.28;58.83;101218.94;109993;1266;21794;-80
2023/08/19 07:06:12;;;;;;;;;26.00;25.00;;;;;26.21;58.30;101218.10;110052;1259;21762;-82
2023/08/19 07:08:38;;;;;;;;;25.50;23.50;;;;;26.21;57.86;101217.89;110015;1259;19214;-80
2023/08/19 07:11:04;;;;;;;;;29.00;26.00;;;;;26.21;57.70;101217.84;110888;1251;19461;-80
2023/08/19 07:13:30;;;;;;;;;29.00;26.00;;;;;26.22;57.82;101217.43;111259;1250;20253;-82
2023/08/19 07:15:56;;;;;;;;;30.50;28.50;;;;;26.31;57.36;101221.33;110802;1265;21912;-78
2023/08/19 07:18:22;;;;;;;;;24.00;22.00;;;;;26.28;57.01;101222.17;111134;1251;20925;-79
2023/08/19 07:20:48;;;;;;;;;25.00;23.00;;;;;26.32;57.37;101220.23;110396;1265;19990;-82
2023/08/19 07:23:14;;;;;;;;;27.00;26.00;;;;;26.40;57.30;101218.67;110111;1260;19881;-79
2023/08/19 07:25:40;;;;;;;;;26.00;23.00;;;;;26.47;57.00;101216.44;110378;1265;19880;-80
2023/08/19 07:28:06;;;;;;;;;21.50;20.00;;;;;26.50;56.62;101221.40;110013;1265;21624;-78
2023/08/19 07:30:32;;;;;;;;;23.00;22.50;;;;;26.41;57.14;101222.52;109603;1251;554201;-79
2023/08/19 07:32:58;;;;;;;;;27.00;23.50;;;;;26.45;57.09;101225.86;110032;1250;20834;-78
2023/08/19 07:35:24;;;;;;;;;27.50;21.50;;;;;26.51;56.73;101229.12;110044;1266;23692;-80
2023/08/19 07:37:50;;;;;;;;;25.50;24.00;;;;;26.52;56.96;101230.38;110203;1253;23462;-79
2023/08/19 07:40:16;;;;;;;;;21.50;21.50;;;;;26.56;56.53;101232.23;110002;1265;23003;-80
2023/08/19 07:42:42;;;;;;;;;21.00;18.00;;;;;26.55;56.82;101231.21;109944;1265;20449;-79
2023/08/19 07:45:08;;;;;;;;;23.00;18.00;;;;;26.56;57.05;101234.44;109998;1266;18911;-78
2023/08/19 07:47:35;;;;;;;;;23.50;19.50;;;;;26.58;57.10;101232.88;109992;1253;21047;-82
2023/08/19 07:50:01;;;;;;;;;18.00;17.00;;;;;26.61;57.09;101233.15;109963;1251;21742;-78
2023/08/19 07:52:27;;;;;;;;;24.00;21.00;;;;;26.63;57.24;101230.77;109959;1266;23672;-79
2023/08/19 07:54:53;;;;;;;;;17.00;17.00;;;;;26.63;57.18;101231.70;110031;1251;23109;-79
2023/08/19 07:57:19;;;;;;;;;123.00;96.00;;;;;26.72;56.72;101230.45;110007;1251;21303;-77
2023/08/19 07:59:45;;;;;;;;;204.00;154.00;;;;;26.70;56.48;101230.87;110001;1250;23096;-77
2023/08/19 08:02:11;;;;;;;;;297.00;211.50;;;;;26.58;56.45;101230.94;109965;1265;19607;-79
2023/08/19 08:04:37;;;;;;;;;304.00;227.67;;;;;26.55;56.53;101232.14;109951;1265;20121;-79
2023/08/19 08:07:03;;;;;;;;;217.00;159.00;;;;;26.53;56.61;101227.95;109968;1250;20317;-78
2023/08/19 08:09:29;;;;;;;;;159.00;115.00;;;;;26.52;56.61;101224.06;110041;1250;20963;-81
2023/08/19 08:11:55;;;;;;;;;115.50;90.00;;;;;26.71;55.90;101220.41;110017;1250;22542;-80
2023/08/19 08:14:21;;;;;;;;;122.50;86.50;;;;;26.85;55.50;101219.59;109990;1251;20107;-78
2023/08/19 08:16:47;;;;;;;;;91.00;66.00;;;;;26.71;55.66;101216.34;109993;1251;20934;-78
2023/08/19 08:19:13;;;;;;;;;83.00;60.50;;;;;26.66;55.61;101216.42;110016;1251;21504;-78
2023/08/19 08:21:39;;;;;;;;;75.50;56.00;;;;;26.61;55.75;101213.91;110022;1251;19081;-78
2023/08/19 08:24:05;;;;;;;;;69.00;53.00;;;;;26.62;55.73;101211.92;109995;1251;23007;-78
2023/08/19 08:26:31;;;;;;;;;65.00;46.00;;;;;26.66;55.37;101214.16;110011;1265;20463;-79
2023/08/19 08:28:57;;;;;;;;;62.00;46.00;;;;;26.67;54.95;101206.61;110079;1265;19056;-78
2023/08/19 08:31:24;;;;;;;;;49.00;39.00;;;;;26.64;55.14;101207.66;110079;1260;19499;-78
2023/08/19 08:33:50;;;;;;;;;44.50;36.50;;;;;26.67;54.76;101206.58;110100;1265;20040;-78
2023/08/19 08:36:16;;;;;;;;;38.00;31.00;;;;;26.72;54.44;101206.98;110109;1251;23020;-79
2023/08/19 08:38:42;;;;;;;;;31.50;24.50;;;;;26.74;54.57;101211.02;110237;1265;20802;-78
2023/08/19 08:41:08;;;;;;;;;26.00;23.00;;;;;26.78;54.68;101213.10;110530;1250;21785;-79
2023/08/19 08:43:34;;;;;;;;;25.00;22.50;;;;;26.80;54.38;101211.80;110259;1265;19549;-78
2023/08/19 08:46:00;;;;;;;;;23.00;22.00;;;;;26.82;54.44;101213.53;110394;1250;20904;-80
2023/08/19 08:48:26;;;;;;;;;24.00;23.00;;;;;26.83;54.64;101210.55;110070;1265;22856;-81
2023/08/19 08:50:52;;;;;;;;;24.00;21.00;;;;;26.82;54.71;101210.95;110078;1250;23465;-82
2023/08/19 08:53:18;;;;;;;;;19.00;17.00;;;;;26.79;54.84;101208.64;110057;1251;21181;-78
2023/08/19 08:55:44;;;;;;;;;23.00;20.00;;;;;26.73;55.34;101207.69;109993;1250;21672;-78
2023/08/19 08:58:10;;;;;;;;;18.00;15.00;;;;;26.70;55.45;101210.05;110022;1250;20103;-79
2023/08/19 09:00:37;;;;;;;;;15.00;13.50;;;;;26.72;55.06;101207.81;110022;1266;20784;-83
2023/08/19 09:03:03;;;;;;;;;17.00;15.00;;;;;26.71;55.01;101208.98;110035;1250;21413;-85
2023/08/19 09:05:29;;;;;;;;;17.00;14.00;;;;;26.72;55.33;101208.91;110039;1265;22951;-79
2023/08/19 09:07:57;;;;;;;;;19.00;16.00;;;;;26.76;54.75;101205.55;110077;1251;23815;-80
2023/08/19 09:10:23;;;;;;;;;17.50;17.00;;;;;26.76;54.07;101207.69;110061;1250;23016;-79
2023/08/19 09:12:49;;;;;;;;;17.00;16.50;;;;;26.74;53.84;101204.91;110361;1266;19223;-80
2023/08/19 09:15:15;;;;;;;;;17.50;16.00;;;;;26.77;53.34;101202.34;110767;1250;20956;-81
2023/08/19 09:17:41;;;;;;;;;13.50;13.50;;;;;26.75;53.75;101199.52;110837;1251;22263;-81
2023/08/19 09:20:07;;;;;;;;;14.00;13.00;;;;;26.77;53.29;101200.59;110056;1251;20177;-81
2023/08/19 09:22:33;;;;;;;;;15.00;13.00;;;;;26.78;53.40;101202.70;110050;1265;19453;-80
2023/08/19 09:24:59;;;;;;;;;17.00;15.00;;;;;26.75;53.41;101205.39;110058;1266;23025;-79
2023/08/19 09:27:26;;;;;;;;;13.00;12.00;;;;;26.72;53.68;101205.66;110080;1251;20154;-80
2023/08/19 09:29:52;;;;;;;;;16.00;12.00;;;;;26.70;53.99;101207.73;110218;1251;23324;-78
2023/08/19 09:32:18;;;;;;;;;12.00;12.00;;;;;26.71;54.08;101207.99;110536;1265;20211;-80
2023/08/19 09:34:44;;;;;;;;;14.00;13.00;;;;;26.71;54.06;101205.52;110932;1250;22271;-79
2023/08/19 09:37:11;;;;;;;;;13.00;13.00;;;;;26.74;53.87;101206.08;110577;1250;22900;-79
2023/08/19 09:39:37;;;;;;;;;19.00;19.00;;;;;26.74;54.20;101206.52;110843;1258;22807;-79
2023/08/19 09:42:04;;;;;;;;;;;;;;;26.74;54.33;101205.41;110434;1250;19983;-83
2023/08/19 09:44:30;;;;;;;;;21.00;19.00;;;;;26.75;54.53;101207.31;110976;1250;20477;-82
2023/08/19 09:46:56;;;;;;;;;18.00;16.00;;;;;26.77;54.59;101211.19;110969;1265;20222;-83
2023/08/19 09:49:22;;;;;;;;;16.33;16.00;;;;;26.76;54.74;101210.66;111094;1265;19596;-81
2023/08/19 09:51:48;;;;;;;;;17.50;16.00;;;;;26.75;54.64;101212.59;110435;1251;19423;-81
2023/08/19 09:54:14;;;;;;;;;18.00;16.00;;;;;26.74;54.55;101212.61;111084;1250;21685;-80
2023/08/19 09:56:40;;;;;;;;;19.50;16.50;;;;;26.72;54.64;101209.63;111080;1250;21010;-81
2023/08/19 09:59:06;;;;;;;;;13.50;13.50;;;;;26.82;53.84;101207.42;111063;1251;20859;-81
2023/08/19 10:01:34;;;;;;;;;16.50;16.00;;;;;26.83;53.76;101208.02;110964;1250;22204;-80
2023/08/19 10:04:00;;;;;;;;;18.00;16.00;;;;;26.84;53.57;101205.86;111339;1250;21205;-80
2023/08/19 10:06:26;;;;;;;;;16.00;14.00;;;;;26.86;53.41;101203.35;111486;1250;19421;-84
2023/08/19 10:08:52;;;;;;;;;13.50;13.00;;;;;26.84;53.52;101201.52;111446;1265;20159;-81
2023/08/19 10:11:19;;;;;;;;;16.00;13.00;;;;;26.83;53.68;101199.39;111394;1250;22446;-80
2023/08/19 10:13:45;;;;;;;;;13.50;13.50;;;;;26.89;53.51;101198.14;111091;1250;20088;-79
2023/08/19 10:16:11;;;;;;;;;13.00;12.50;;;;;26.86;53.46;101196.91;110899;1259;21473;-79
2023/08/19 10:18:37;;;;;;;;;13.00;13.00;;;;;26.84;53.89;101197.11;110242;1260;23163;-79
2023/08/19 10:21:04;;;;;;;;;13.00;12.00;;;;;26.84;53.75;101191.45;111288;1259;21381;-81
2023/08/19 10:23:30;;;;;;;;;13.00;12.00;;;;;26.87;53.74;101190.91;110754;1266;20193;-78
2023/08/19 10:25:56;;;;;;;;;14.00;13.00;;;;;26.85;54.06;101190.77;110111;1266;18967;-77
2023/08/19 10:28:22;;;;;;;;;9.00;9.00;;;;;26.84;54.34;101186.23;110043;1265;19610;-77
2023/08/19 10:30:48;;;;;;;;;13.00;12.00;;;;;26.83;54.54;101186.86;110040;1260;22841;-78
2023/08/19 10:33:14;;;;;;;;;10.00;10.00;;;;;26.82;54.88;101186.10;110074;1250;22978;-75
2023/08/19 10:35:40;;;;;;;;;12.00;9.00;;;;;26.79;54.82;101180.98;110052;1266;19446;-76
2023/08/19 10:38:06;;;;;;;;;10.00;9.00;;;;;26.79;54.80;101181.09;110028;1250;22971;-76
2023/08/19 10:40:33;;;;;;;;;13.00;12.00;;;;;26.76;55.53;101178.39;110037;1266;20805;-76
2023/08/19 10:42:59;;;;;;;;;12.00;11.00;;;;;26.76;57.00;101176.91;110013;1265;19435;-76
2023/08/19 10:45:25;;;;;;;;;11.00;11.00;;;;;26.79;58.31;101175.98;110037;1250;21636;-75
2023/08/19 10:47:51;;;;;;;;;11.00;11.00;;;;;26.78;58.37;101177.30;109993;1251;20010;-77
2023/08/19 10:50:18;;;;;;;;;12.50;11.00;;;;;26.78;58.17;101176.48;109965;1260;20763;-77
2023/08/19 10:52:44;;;;;;;;;10.00;9.00;;;;;26.80;58.19;101176.40;109957;1265;20148;-77
2023/08/19 10:55:10;;;;;;;;;8.00;8.00;;;;;26.80;58.12;101175.19;109919;1266;18998;-75
2023/08/19 10:57:38;;;;;;;;;9.00;8.50;;;;;26.78;58.17;101176.81;109992;1266;22619;-74